Time;durP1;ratioP1;P1;durP2;ratioP2;P2;SDS_P1;SDS_P2;PMS_P1;PMS_P2;Temp;Humidity;BMP_temperature;BMP_pressure;BME280_temperature;BME280_humidity;BME280_pressure;Samples;Min_cycle;Max_cycle;Signal;HPM_P1;HPM_P2
2023/05/25 00:01:57;;;;;;;;;;;;;;;;;;5042259;28;19917;-82
2023/05/25 00:04:47;;;;;;;;;;;;;;;;;;5046386;28;19913;-83
2023/05/25 00:07:33;;;;;;;;;;;;;;;;;;5052310;28;20296;-83
2023/05/25 00:10:20;;;;;;;;;;;;;;;;;;5053942;28;19922;-83
2023/05/25 00:13:06;;;;;;;;;;;;;;;;;;5045493;28;19928;-82
2023/05/25 00:15:53;;;;;;;;;;;;;;;;;;5041309;28;19943;-83
2023/05/25 00:18:39;;;;;;;;;;;;;;;;;;5058225;28;19935;-82
2023/05/25 00:21:26;;;;;;;;;;;;;;;;;;5059772;28;20318;-83
2023/05/25 00:24:12;;;;;;;;;;;;;;;;;;5056220;28;19919;-82
2023/05/25 00:26:59;;;;;;;;;;;;;;;;;;5035968;28;19913;-81
2023/05/25 00:29:45;;;;;;;;;;;;;;;;;;5035665;28;19923;-82
2023/05/25 00:32:32;;;;;;;;;;;;;;;;;;5042401;28;19920;-82
2023/05/25 00:35:18;;;;;;;;;;;;;;;;;;5042156;28;20585;-82
2023/05/25 00:38:05;;;;;;;;;;;;;;;;;;5038103;28;19921;-82
2023/05/25 00:40:51;;;;;;;;;;;;;;;;;;5051363;28;20264;-83
2023/05/25 00:43:38;;;;;;;;;;;;;;;;;;5056986;28;19924;-82
2023/05/25 00:46:24;;;;;;;;;;;;;;;;;;5072547;28;19924;-83
2023/05/25 00:49:11;;;;;;;;;;;;;;;;;;5037271;28;19913;-83
2023/05/25 00:51:57;;;;;;;;;;;;;;;;;;5063549;28;19931;-82
2023/05/25 00:54:44;;;;;;;;;;;;;;;;;;5060561;28;19924;-83
2023/05/25 00:57:32;;;;;;;;;;;;;;;;;;5038007;28;19913;-81
2023/05/25 01:00:20;;;;;;;;;;;;;;;;;;5054042;28;19916;-82
2023/05/25 01:03:10;;;;;;;;;;;;;;;;;;5045101;28;19946;-82
2023/05/25 01:05:56;;;;;;;;;;;;;;;;;;5038912;28;19923;-80
2023/05/25 01:08:43;;;;;;;;;;;;;;;;;;5050038;28;19950;-82
2023/05/25 01:11:29;;;;;;;;;;;;;;;;;;5058476;28;20368;-81
2023/05/25 01:14:16;;;;;;;;;;;;;;;;;;5056088;28;19927;-80
2023/05/25 01:17:03;;;;;;;;;;;;;;;;;;5054522;28;19935;-81
2023/05/25 01:19:51;;;;;;;;;;;;;;;;;;5037804;28;20423;-83
2023/05/25 01:22:39;;;;;;;;;;;;;;;;;;5060494;28;19998;-85
2023/05/25 01:25:25;;;;;;;;;;;;;;;;;;5056092;28;19968;-85
2023/05/25 01:28:12;;;;;;;;;;;;;;;;;;5057729;28;19916;-85
2023/05/25 01:30:58;;;;;;;;;;;;;;;;;;5053849;28;19943;-82
2023/05/25 01:33:45;;;;;;;;;;;;;;;;;;5066655;28;19924;-83
2023/05/25 01:36:32;;;;;;;;;;;;;;;;;;5038586;28;19917;-83
2023/05/25 01:39:18;;;;;;;;;;;;;;;;;;5035061;28;19917;-82
2023/05/25 01:42:05;;;;;;;;;;;;;;;;;;5039025;28;19917;-84
2023/05/25 01:44:51;;;;;;;;;;;;;;;;;;5048216;28;19919;-83
2023/05/25 01:47:38;;;;;;;;;;;;;;;;;;5040832;28;19936;-84
2023/05/25 01:50:24;;;;;;;;;;;;;;;;;;5047319;28;20353;-83
2023/05/25 01:53:12;;;;;;;;;;;;;;;;;;5050560;28;19928;-84
2023/05/25 01:55:59;;;;;;;;;;;;;;;;;;5030836;28;20360;-83
2023/05/25 01:58:45;;;;;;;;;;;;;;;;;;5038844;28;20315;-83
2023/05/25 02:01:31;;;;;;;;;;;;;;;;;;5037636;28;19923;-83
2023/05/25 02:04:18;;;;;;;;;;;;;;;;;;5038438;28;19921;-83
2023/05/25 02:07:05;;;;;;;;;;;;;;;;;;5034289;28;19968;-83
2023/05/25 02:09:51;;;;;;;;;;;;;;;;;;5027548;28;20289;-83
2023/05/25 02:12:38;;;;;;;;;;;;;;;;;;5046440;28;19921;-83
2023/05/25 02:15:24;;;;;;;;;;;;;;;;;;5036180;28;19917;-82
2023/05/25 02:18:12;;;;;;;;;;;;;;;;;;5042131;28;20394;-84
2023/05/25 02:20:58;;;;;;;;;;;;;;;;;;5044410;28;19921;-82
2023/05/25 02:23:46;;;;;;;;;;;;;;;;;;5042534;28;19921;-82
2023/05/25 02:26:33;;;;;;;;;;;;;;;;;;5046804;28;19912;-82
2023/05/25 02:29:19;;;;;;;;;;;;;;;;;;5047150;28;19932;-83
2023/05/25 02:32:06;;;;;;;;;;;;;;;;;;5036662;28;20620;-83
2023/05/25 02:34:52;;;;;;;;;;;;;;;;;;5038185;28;19929;-82
2023/05/25 02:37:39;;;;;;;;;;;;;;;;;;5028960;28;19944;-83
2023/05/25 02:40:25;;;;;;;;;;;;;;;;;;5035413;28;19939;-84
2023/05/25 02:43:12;;;;;;;;;;;;;;;;;;5040070;28;19920;-82
2023/05/25 02:45:58;;;;;;;;;;;;;;;;;;5058439;28;19917;-81
2023/05/25 02:48:45;;;;;;;;;;;;;;;;;;5057897;28;20376;-82
2023/05/25 02:51:32;;;;;;;;;;;;;;;;;;5050845;28;19917;-82
2023/05/25 02:54:18;;;;;;;;;;;;;;;;;;5065476;28;19931;-83
2023/05/25 02:57:05;;;;;;;;;;;;;;;;;;5059713;28;19917;-82
2023/05/25 02:59:51;;;;;;;;;;;;;;;;;;5057366;28;19924;-82
2023/05/25 03:02:38;;;;;;;;;;;;;;;;;;5050360;28;19925;-82
2023/05/25 03:05:25;;;;;;;;;;;;;;;;;;5054379;28;20424;-82
2023/05/25 03:08:11;;;;;;;;;;;;;;;;;;5032073;28;19917;-82
2023/05/25 03:10:58;;;;;;;;;;;;;;;;;;5038273;28;19956;-82
2023/05/25 03:13:44;;;;;;;;;;;;;;;;;;5058251;28;20304;-85
2023/05/25 03:16:34;;;;;;;;;;;;;;;;;;5037932;28;20308;-85
2023/05/25 03:19:21;;;;;;;;;;;;;;;;;;5045128;28;19917;-83
2023/05/25 03:22:07;;;;;;;;;;;;;;;;;;5048550;28;19923;-84
2023/05/25 03:24:54;;;;;;;;;;;;;;;;;;5066199;28;20418;-82
2023/05/25 03:27:40;;;;;;;;;;;;;;;;;;5040243;28;19959;-84
2023/05/25 03:30:27;;;;;;;;;;;;;;;;;;5054379;28;19925;-84
2023/05/25 03:33:13;;;;;;;;;;;;;;;;;;5034988;28;19933;-82
2023/05/25 03:36:00;;;;;;;;;;;;;;;;;;5043786;28;19917;-83
2023/05/25 03:38:46;;;;;;;;;;;;;;;;;;5033849;28;19932;-82
2023/05/25 03:41:33;;;;;;;;;;;;;;;;;;5048794;28;20271;-81
2023/05/25 03:44:19;;;;;;;;;;;;;;;;;;5054311;28;19913;-82
2023/05/25 03:47:06;;;;;;;;;;;;;;;;;;5040579;28;19935;-82
2023/05/25 03:49:52;;;;;;;;;;;;;;;;;;5042116;28;20388;-83
2023/05/25 03:52:39;;;;;;;;;;;;;;;;;;5040928;28;19921;-83
2023/05/25 03:55:27;;;;;;;;;;;;;;;;;;5035392;28;19921;-84
2023/05/25 03:58:14;;;;;;;;;;;;;;;;;;5040847;28;19924;-83
2023/05/25 04:01:01;;;;;;;;;;;;;;;;;;5039853;28;21449;-82
2023/05/25 04:03:48;;;;;;;;;;;;;;;;;;5040429;28;19931;-85
2023/05/25 04:06:36;;;;;;;;;;;;;;;;;;5060283;28;20400;-84
2023/05/25 04:09:22;;;;;;;;;;;;;;;;;;5053278;28;19920;-84
2023/05/25 04:12:09;;;;;;;;;;;;;;;;;;5041634;28;20372;-85
2023/05/25 04:14:55;;;;;;;;;;;;;;;;;;5061969;28;19928;-83
2023/05/25 04:17:41;;;;;;;;;;;;;;;;;;5039730;28;19929;-86
2023/05/25 04:20:28;;;;;;;;;;;;;;;;;;5037600;28;21481;-85
2023/05/25 04:23:15;;;;;;;;;;;;;;;;;;5052466;28;19937;-85
2023/05/25 04:26:02;;;;;;;;;;;;;;;;;;5046957;28;19912;-85
2023/05/25 04:28:49;;;;;;;;;;;;;;;;;;5043970;28;19925;-84
2023/05/25 04:31:35;;;;;;;;;;;;;;;;;;5061598;28;19920;-85
2023/05/25 04:34:22;;;;;;;;;;;;;;;;;;5037828;28;19925;-84
2023/05/25 04:37:08;;;;;;;;;;;;;;;;;;5061344;28;19921;-85
2023/05/25 04:39:56;;;;;;;;;;;;;;;;;;5053176;28;19923;-84
2023/05/25 04:42:43;;;;;;;;;;;;;;;;;;5062204;28;19916;-86
2023/05/25 04:45:32;;;;;;;;;;;;;;;;;;5065915;28;19920;-85
2023/05/25 04:48:18;;;;;;;;;;;;;;;;;;5045827;28;19921;-86
2023/05/25 04:51:06;;;;;;;;;;;;;;;;;;5051821;28;19923;-85
2023/05/25 04:53:52;;;;;;;;;;;;;;;;;;5047538;28;20372;-84
2023/05/25 04:56:39;;;;;;;;;;;;;;;;;;5056609;28;19925;-85
2023/05/25 04:59:25;;;;;;;;;;;;;;;;;;5044162;28;19947;-85
2023/05/25 05:02:12;;;;;;;;;;;;;;;;;;5035013;28;19948;-85
2023/05/25 05:04:58;;;;;;;;;;;;;;;;;;5042650;28;19932;-82
2023/05/25 05:07:45;;;;;;;;;;;;;;;;;;5044486;28;19920;-82
2023/05/25 05:10:31;;;;;;;;;;;;;;;;;;5045189;28;19951;-81
2023/05/25 05:13:18;;;;;;;;;;;;;;;;;;5047945;28;19955;-79
2023/05/25 05:16:05;;;;;;;;;;;;;;;;;;5052303;28;19942;-81
2023/05/25 05:18:51;;;;;;;;;;;;;;;;;;5057095;28;19923;-80
2023/05/25 05:21:38;;;;;;;;;;;;;;;;;;5036319;28;19948;-78
2023/05/25 05:24:24;;;;;;;;;;;;;;;;;;5048045;28;19916;-80
2023/05/25 05:27:12;;;;;;;;;;;;;;;;;;5034789;28;19948;-80
2023/05/25 05:29:59;;;;;;;;;;;;;;;;;;5045610;28;19932;-80
2023/05/25 05:32:45;;;;;;;;;;;;;;;;;;5048981;28;20386;-79
2023/05/25 05:35:32;;;;;;;;;;;;;;;;;;5045832;28;19935;-80
2023/05/25 05:38:18;;;;;;;;;;;;;;;;;;5059163;28;19927;-81
2023/05/25 05:41:12;;;;;;;;;;;;;;;;;;5047218;28;19917;-81
2023/05/25 05:44:00;;;;;;;;;;;;;;;;;;5051610;28;20390;-79
2023/05/25 05:46:46;;;;;;;;;;;;;;;;;;5047673;28;19939;-83
2023/05/25 05:49:33;;;;;;;;;;;;;;;;;;5063081;28;19921;-81
2023/05/25 05:52:19;;;;;;;;;;;;;;;;;;5044232;28;19927;-80
2023/05/25 05:55:06;;;;;;;;;;;;;;;;;;5042043;28;19928;-81
2023/05/25 05:57:53;;;;;;;;;;;;;;;;;;5040786;28;20360;-81
2023/05/25 06:00:39;;;;;;;;;;;;;;;;;;5037468;28;19925;-82
2023/05/25 06:03:28;;;;;;;;;;;;;;;;;;5037707;28;19917;-80
2023/05/25 06:06:15;;;;;;;;;;;;;;;;;;5043500;28;19944;-81
2023/05/25 06:09:03;;;;;;;;;;;;;;;;;;5061284;28;19923;-80
2023/05/25 06:11:50;;;;;;;;;;;;;;;;;;5053543;28;20367;-81
2023/05/25 06:14:36;;;;;;;;;;;;;;;;;;5040226;28;19929;-81
2023/05/25 06:17:23;;;;;;;;;;;;;;;;;;5043781;28;20264;-78
2023/05/25 06:20:10;;;;;;;;;;;;;;;;;;5039811;28;19932;-78
2023/05/25 06:22:56;;;;;;;;;;;;;;;;;;5046709;28;19928;-77
2023/05/25 06:25:42;;;;;;;;;;;;;;;;;;5042804;28;19921;-77
2023/05/25 06:28:29;;;;;;;;;;;;;;;;;;5052307;28;19917;-76
2023/05/25 06:31:16;;;;;;;;;;;;;;;;;;5060348;28;19916;-77
2023/05/25 06:34:02;;;;;;;;;;;;;;;;;;5036145;28;20011;-80
2023/05/25 06:36:49;;;;;;;;;;;;;;;;;;5041340;28;19979;-77
2023/05/25 06:39:35;;;;;;;;;;;;;;;;;;5035306;28;20402;-77
2023/05/25 06:42:22;;;;;;;;;;;;;;;;;;5036131;28;19917;-78
2023/05/25 06:45:09;;;;;;;;;;;;;;;;;;5052623;28;19931;-78
2023/05/25 06:47:55;;;;;;;;;;;;;;;;;;5038344;28;19917;-76
2023/05/25 06:50:42;;;;;;;;;;;;;;;;;;5045367;28;19920;-77
2023/05/25 06:53:28;;;;;;;;;;;;;;;;;;5033735;28;20406;-77
2023/05/25 06:56:15;;;;;;;;;;;;;;;;;;5049477;28;19924;-78
2023/05/25 06:59:01;;;;;;;;;;;;;;;;;;5041750;28;19921;-78
2023/05/25 07:01:48;;;;;;;;;;;;;;;;;;5066490;28;19923;-77
2023/05/25 07:04:34;;;;;;;;;;;;;;;;;;5047769;28;19971;-77
2023/05/25 07:07:21;;;;;;;;;;;;;;;;;;5039605;28;19923;-76
2023/05/25 07:10:07;;;;;;;;;;;;;;;;;;5057271;28;20840;-77
2023/05/25 07:12:54;;;;;;;;;;;;;;;;;;5043112;28;20300;-76
2023/05/25 07:15:40;;;;;;;;;;;;;;;;;;5056840;28;20292;-77
2023/05/25 07:18:27;;;;;;;;;;;;;;;;;;5059468;28;20451;-77
2023/05/25 07:21:13;;;;;;;;;;;;;;;;;;5070955;28;19936;-77
2023/05/25 07:24:00;;;;;;;;;;;;;;;;;;5044192;28;19921;-77
2023/05/25 07:26:48;;;;;;;;;;;;;;;;;;5038899;28;19959;-77
2023/05/25 07:29:34;;;;;;;;;;;;;;;;;;5053255;28;19920;-77
2023/05/25 07:32:21;;;;;;;;;;;;;;;;;;5058021;28;19942;-77
2023/05/25 07:35:07;;;;;;;;;;;;;;;;;;5035814;28;19926;-77
2023/05/25 07:37:54;;;;;;;;;;;;;;;;;;5070988;28;19916;-78
2023/05/25 07:40:41;;;;;;;;;;;;;;;;;;5047221;28;19921;-76
2023/05/25 07:43:27;;;;;;;;;;;;;;;;;;5059214;28;19920;-78
2023/05/25 07:46:16;;;;;;;;;;;;;;;;;;5042043;28;19928;-78
2023/05/25 07:49:03;;;;;;;;;;;;;;;;;;5037885;28;20368;-78
2023/05/25 07:51:50;;;;;;;;;;;;;;;;;;5035592;28;19923;-78
2023/05/25 07:54:38;;;;;;;;;;;;;;;;;;5050110;28;20331;-78
2023/05/25 07:57:25;;;;;;;;;;;;;;;;;;5041322;28;19921;-79
2023/05/25 08:00:12;;;;;;;;;;;;;;;;;;5033134;28;19917;-78
2023/05/25 08:02:58;;;;;;;;;;;;;;;;;;5073894;28;19927;-78
2023/05/25 08:05:45;;;;;;;;;;;;;;;;;;5055607;28;19931;-79
2023/05/25 08:08:31;;;;;;;;;;;;;;;;;;5045011;28;19921;-78
2023/05/25 08:11:18;;;;;;;;;;;;;;;;;;5037596;28;20403;-77
2023/05/25 08:14:04;;;;;;;;;;;;;;;;;;5045999;28;19924;-77
2023/05/25 08:16:51;;;;;;;;;;;;;;;;;;5040733;28;19924;-78
2023/05/25 08:19:37;;;;;;;;;;;;;;;;;;5039829;28;19920;-77
2023/05/25 08:22:24;;;;;;;;;;;;;;;;;;5047511;28;19920;-77
2023/05/25 08:25:11;;;;;;;;;;;;;;;;;;5054087;28;19938;-78
2023/05/25 08:27:57;;;;;;;;;;;;;;;;;;5049686;28;19927;-77
2023/05/25 08:30:43;;;;;;;;;;;;;;;;;;5042183;28;19928;-77
2023/05/25 08:33:30;;;;;;;;;;;;;;;;;;5047286;28;19929;-78
2023/05/25 08:36:16;;;;;;;;;;;;;;;;;;5057911;28;19932;-77
2023/05/25 08:39:03;;;;;;;;;;;;;;;;;;5061791;28;19916;-78
2023/05/25 08:41:53;;;;;;;;;;;;;;;;;;5043223;28;19948;-78
2023/05/25 08:44:40;;;;;;;;;;;;;;;;;;5042061;28;19925;-78
2023/05/25 08:47:26;;;;;;;;;;;;;;;;;;5049687;28;19921;-78
2023/05/25 08:50:13;;;;;;;;;;;;;;;;;;5037817;28;19921;-78
2023/05/25 08:53:00;;;;;;;;;;;;;;;;;;5054535;28;19943;-77
2023/05/25 08:55:46;;;;;;;;;;;;;;;;;;5047689;28;19944;-78
2023/05/25 08:58:33;;;;;;;;;;;;;;;;;;5040763;28;19917;-77
2023/05/25 09:01:19;;;;;;;;;;;;;;;;;;5048920;28;19921;-78
2023/05/25 09:04:06;;;;;;;;;;;;;;;;;;5043006;28;19928;-78
2023/05/25 09:06:52;;;;;;;;;;;;;;;;;;5055571;28;20003;-78
2023/05/25 09:09:39;;;;;;;;;;;;;;;;;;5051179;28;19921;-78
2023/05/25 09:12:26;;;;;;;;;;;;;;;;;;5062851;28;19928;-78
2023/05/25 09:15:12;;;;;;;;;;;;;;;;;;5049351;28;19938;-77
2023/05/25 09:17:59;;;;;;;;;;;;;;;;;;5043576;28;19928;-77
2023/05/25 09:20:45;;;;;;;;;;;;;;;;;;5048770;28;19935;-78
2023/05/25 09:23:32;;;;;;;;;;;;;;;;;;5047909;28;20447;-78
2023/05/25 09:26:18;;;;;;;;;;;;;;;;;;5042775;28;19917;-77
2023/05/25 09:29:05;;;;;;;;;;;;;;;;;;5037293;28;19917;-76
2023/05/25 09:31:51;;;;;;;;;;;;;;;;;;5042779;28;19931;-77
2023/05/25 09:34:38;;;;;;;;;;;;;;;;;;5037068;28;20364;-77
2023/05/25 09:37:25;;;;;;;;;;;;;;;;;;5031487;28;19936;-78
2023/05/25 09:40:12;;;;;;;;;;;;;;;;;;5045351;28;20473;-78
2023/05/25 09:42:58;;;;;;;;;;;;;;;;;;5053830;28;19919;-77
2023/05/25 09:45:45;;;;;;;;;;;;;;;;;;5037770;28;19924;-77
2023/05/25 09:48:31;;;;;;;;;;;;;;;;;;5030021;28;19928;-78
2023/05/25 09:51:18;;;;;;;;;;;;;;;;;;5050176;28;19932;-78
2023/05/25 09:54:04;;;;;;;;;;;;;;;;;;5042936;28;20601;-77
2023/05/25 09:56:51;;;;;;;;;;;;;;;;;;5046062;28;19913;-77
2023/05/25 09:59:37;;;;;;;;;;;;;;;;;;5031960;28;19923;-78
2023/05/25 10:02:24;;;;;;;;;;;;;;;;;;5059494;28;19917;-78
2023/05/25 10:05:11;;;;;;;;;;;;;;;;;;5049416;28;20429;-79
2023/05/25 10:07:57;;;;;;;;;;;;;;;;;;5047639;28;20299;-79
2023/05/25 10:10:44;;;;;;;;;;;;;;;;;;5046115;28;20002;-78
2023/05/25 10:13:31;;;;;;;;;;;;;;;;;;5055361;28;19927;-77
2023/05/25 10:16:17;;;;;;;;;;;;;;;;;;5039439;28;20008;-77
2023/05/25 10:19:04;;;;;;;;;;;;;;;;;;5040728;28;20368;-76
2023/05/25 10:21:50;;;;;;;;;;;;;;;;;;5037333;28;19925;-77
2023/05/25 10:24:37;;;;;;;;;;;;;;;;;;5052767;28;20499;-77
2023/05/25 10:27:23;;;;;;;;;;;;;;;;;;5048071;28;19924;-78
2023/05/25 10:30:10;;;;;;;;;;;;;;;;;;5043379;28;19927;-78
2023/05/25 10:32:56;;;;;;;;;;;;;;;;;;5031950;28;19913;-78
2023/05/25 10:35:43;;;;;;;;;;;;;;;;;;5035060;28;19928;-78
2023/05/25 10:38:30;;;;;;;;;;;;;;;;;;5053447;28;20368;-77
2023/05/25 10:41:16;;;;;;;;;;;;;;;;;;5046469;28;19920;-77
2023/05/25 10:44:03;;;;;;;;;;;;;;;;;;5046020;28;19959;-77
2023/05/25 10:46:49;;;;;;;;;;;;;;;;;;5055883;28;20409;-76
2023/05/25 10:49:36;;;;;;;;;;;;;;;;;;5043990;28;19917;-77
2023/05/25 10:52:22;;;;;;;;;;;;;;;;;;5043631;28;19928;-78
2023/05/25 10:55:10;;;;;;;;;;;;;;;;;;5043678;28;19955;-77
2023/05/25 10:57:57;;;;;;;;;;;;;;;;;;5044258;28;20184;-79
2023/05/25 11:00:43;;;;;;;;;;;;;;;;;;5034220;28;19913;-77
2023/05/25 11:03:30;;;;;;;;;;;;;;;;;;5046167;28;20392;-79
2023/05/25 11:06:16;;;;;;;;;;;;;;;;;;5056329;28;19916;-78
2023/05/25 11:09:04;;;;;;;;;;;;;;;;;;5054620;28;19917;-79
2023/05/25 11:11:51;;;;;;;;;;;;;;;;;;5045659;28;20364;-79
2023/05/25 11:14:41;;;;;;;;;;;;;;;;;;5044675;28;20323;-78
2023/05/25 11:17:31;;;;;;;;;;;;;;;;;;5046246;28;20360;-78
2023/05/25 11:20:17;;;;;;;;;;;;;;;;;;5041644;28;20289;-78
2023/05/25 11:23:04;;;;;;;;;;;;;;;;;;5047303;28;19917;-78
2023/05/25 11:25:50;;;;;;;;;;;;;;;;;;5050661;28;19977;-78
2023/05/25 11:28:37;;;;;;;;;;;;;;;;;;5060939;28;19917;-83
2023/05/25 11:31:24;;;;;;;;;;;;;;;;;;5040099;28;19932;-79
2023/05/25 11:34:11;;;;;;;;;;;;;;;;;;5033879;28;19927;-80
2023/05/25 11:37:01;;;;;;;;;;;;;;;;;;5042665;28;19924;-82
2023/05/25 11:39:47;;;;;;;;;;;;;;;;;;5042284;28;20296;-81
2023/05/25 11:42:34;;;;;;;;;;;;;;;;;;5055714;28;19921;-81
2023/05/25 11:45:21;;;;;;;;;;;;;;;;;;5040923;28;20021;-81
2023/05/25 11:48:08;;;;;;;;;;;;;;;;;;5041568;28;19928;-81
2023/05/25 11:50:56;;;;;;;;;;;;;;;;;;5065476;28;19924;-77
2023/05/25 11:53:43;;;;;;;;;;;;;;;;;;5051290;28;19924;-80
2023/05/25 11:56:29;;;;;;;;;;;;;;;;;;5049796;28;19921;-80
2023/05/25 11:59:16;;;;;;;;;;;;;;;;;;5044276;28;19921;-81
2023/05/25 12:02:03;;;;;;;;;;;;;;;;;;5046763;28;19916;-78
2023/05/25 12:04:50;;;;;;;;;;;;;;;;;;5039740;28;20382;-78
2023/05/25 12:07:37;;;;;;;;;;;;;;;;;;5055659;28;19924;-76
2023/05/25 12:10:23;;;;;;;;;;;;;;;;;;5052738;28;20339;-78
2023/05/25 12:13:13;;;;;;;;;;;;;;;;;;5034652;28;19921;-78
2023/05/25 12:15:59;;;;;;;;;;;;;;;;;;4986495;28;2042451;-77
2023/05/25 12:18:46;;;;;;;;;;;;;;;;;;5054014;28;19921;-77
2023/05/25 12:21:33;;;;;;;;;;;;;;;;;;5050049;28;19917;-77
2023/05/25 12:24:19;;;;;;;;;;;;;;;;;;5068006;28;20003;-77
2023/05/25 12:27:06;;;;;;;;;;;;;;;;;;5059571;28;19927;-77
2023/05/25 12:29:52;;;;;;;;;;;;;;;;;;5032810;28;19923;-78
2023/05/25 12:32:38;;;;;;;;;;;;;;;;;;5046787;28;19927;-77
2023/05/25 12:35:25;;;;;;;;;;;;;;;;;;5043068;28;19933;-77
2023/05/25 12:38:12;;;;;;;;;;;;;;;;;;5031438;28;19939;-77
2023/05/25 12:40:58;;;;;;;;;;;;;;;;;;5051636;28;19921;-77
2023/05/25 12:43:45;;;;;;;;;;;;;;;;;;5053570;28;19924;-76
2023/05/25 12:46:31;;;;;;;;;;;;;;;;;;5053817;28;19921;-78
2023/05/25 12:49:18;;;;;;;;;;;;;;;;;;5036522;28;20447;-77
2023/05/25 12:52:04;;;;;;;;;;;;;;;;;;5046004;28;20000;-77
2023/05/25 12:54:51;;;;;;;;;;;;;;;;;;5036424;28;19940;-78
2023/05/25 12:57:37;;;;;;;;;;;;;;;;;;5053190;28;20516;-78
2023/05/25 13:00:24;;;;;;;;;;;;;;;;;;5038659;28;19923;-78
2023/05/25 13:03:10;;;;;;;;;;;;;;;;;;5036451;28;19921;-77
2023/05/25 13:05:57;;;;;;;;;;;;;;;;;;5034009;28;19917;-78
2023/05/25 13:08:43;;;;;;;;;;;;;;;;;;5040274;28;19932;-78
2023/05/25 13:11:30;;;;;;;;;;;;;;;;;;5044375;28;19923;-78
2023/05/25 13:14:16;;;;;;;;;;;;;;;;;;5040166;28;20337;-77
2023/05/25 13:17:03;;;;;;;;;;;;;;;;;;5038087;28;19929;-78
2023/05/25 13:19:49;;;;;;;;;;;;;;;;;;5035919;28;19921;-79
2023/05/25 13:22:35;;;;;;;;;;;;;;;;;;5055870;28;19917;-79
2023/05/25 13:25:24;;;;;;;;;;;;;;;;;;5064019;28;19932;-78
2023/05/25 13:28:10;;;;;;;;;;;;;;;;;;5052899;28;19931;-78
2023/05/25 13:30:57;;;;;;;;;;;;;;;;;;5056841;28;19912;-79
2023/05/25 13:33:43;;;;;;;;;;;;;;;;;;5046149;28;19924;-78
2023/05/25 13:36:31;;;;;;;;;;;;;;;;;;5038653;28;20324;-77
2023/05/25 13:39:18;;;;;;;;;;;;;;;;;;5044648;28;19917;-76
2023/05/25 13:42:05;;;;;;;;;;;;;;;;;;5050144;28;20220;-76
2023/05/25 13:44:51;;;;;;;;;;;;;;;;;;5046913;28;19928;-77
2023/05/25 13:47:38;;;;;;;;;;;;;;;;;;5039953;28;19928;-77
2023/05/25 13:50:25;;;;;;;;;;;;;;;;;;5045385;28;19925;-76
2023/05/25 13:53:11;;;;;;;;;;;;;;;;;;5037879;28;19921;-77
2023/05/25 13:55:59;;;;;;;;;;;;;;;;;;5039663;28;19936;-77
2023/05/25 13:58:45;;;;;;;;;;;;;;;;;;5043781;28;19928;-77
2023/05/25 14:01:33;;;;;;;;;;;;;;;;;;5055617;28;19963;-80
2023/05/25 14:04:19;;;;;;;;;;;;;;;;;;5031985;28;20455;-80
2023/05/25 14:07:06;;;;;;;;;;;;;;;;;;5034557;28;19920;-81
2023/05/25 14:09:52;;;;;;;;;;;;;;;;;;5050086;28;19917;-80
2023/05/25 14:12:39;;;;;;;;;;;;;;;;;;5057711;28;19921;-81
2023/05/25 14:15:25;;;;;;;;;;;;;;;;;;5048694;28;20331;-80
2023/05/25 14:18:12;;;;;;;;;;;;;;;;;;5058093;28;19920;-79
2023/05/25 14:20:58;;;;;;;;;;;;;;;;;;5059087;28;19927;-79
2023/05/25 14:23:45;;;;;;;;;;;;;;;;;;5057100;28;19917;-77
2023/05/25 14:26:31;;;;;;;;;;;;;;;;;;5040688;28;19987;-78
2023/05/25 14:29:18;;;;;;;;;;;;;;;;;;5064699;28;19924;-77
2023/05/25 14:32:04;;;;;;;;;;;;;;;;;;5033555;28;19917;-77
2023/05/25 14:34:51;;;;;;;;;;;;;;;;;;5048373;28;19955;-79
2023/05/25 14:37:37;;;;;;;;;;;;;;;;;;5033727;28;20293;-78
2023/05/25 14:40:24;;;;;;;;;;;;;;;;;;5033005;28;19921;-77
2023/05/25 14:43:10;;;;;;;;;;;;;;;;;;5043767;28;19929;-77
2023/05/25 14:45:57;;;;;;;;;;;;;;;;;;5046905;28;19929;-77
2023/05/25 14:48:43;;;;;;;;;;;;;;;;;;5042884;28;19923;-77
2023/05/25 14:51:30;;;;;;;;;;;;;;;;;;5058840;28;20367;-76
2023/05/25 14:54:16;;;;;;;;;;;;;;;;;;5038413;28;19931;-76
2023/05/25 14:57:03;;;;;;;;;;;;;;;;;;5059270;28;20300;-77
2023/05/25 14:59:49;;;;;;;;;;;;;;;;;;5066995;28;19931;-79
2023/05/25 15:02:36;;;;;;;;;;;;;;;;;;5056747;28;19916;-78
2023/05/25 15:05:22;;;;;;;;;;;;;;;;;;5048022;28;19912;-77
2023/05/25 15:08:09;;;;;;;;;;;;;;;;;;5065951;28;19924;-79
2023/05/25 15:10:55;;;;;;;;;;;;;;;;;;5062538;28;19926;-77
2023/05/25 15:13:42;;;;;;;;;;;;;;;;;;5057644;28;20257;-78
2023/05/25 15:16:28;;;;;;;;;;;;;;;;;;5038142;28;19929;-77
2023/05/25 15:19:15;;;;;;;;;;;;;;;;;;5047533;28;19932;-77
2023/05/25 15:22:02;;;;;;;;;;;;;;;;;;5039571;28;19932;-77
2023/05/25 15:24:48;;;;;;;;;;;;;;;;;;5034364;28;19921;-77
2023/05/25 15:27:35;;;;;;;;;;;;;;;;;;5042773;28;19921;-78
2023/05/25 15:30:21;;;;;;;;;;;;;;;;;;5044296;28;20372;-77
2023/05/25 15:33:08;;;;;;;;;;;;;;;;;;5041208;28;19917;-77
2023/05/25 15:35:54;;;;;;;;;;;;;;;;;;5061779;28;19932;-77
2023/05/25 15:38:42;;;;;;;;;;;;;;;;;;5044951;28;19932;-77
2023/05/25 15:41:28;;;;;;;;;;;;;;;;;;5060426;28;19924;-78
2023/05/25 15:44:15;;;;;;;;;;;;;;;;;;5056573;28;19925;-78
2023/05/25 15:47:01;;;;;;;;;;;;;;;;;;5033813;28;19921;-77
2023/05/25 15:49:48;;;;;;;;;;;;;;;;;;5041174;28;19917;-77
2023/05/25 15:52:34;;;;;;;;;;;;;;;;;;5040717;28;19923;-78
2023/05/25 15:55:21;;;;;;;;;;;;;;;;;;5036532;28;19928;-78
2023/05/25 15:58:07;;;;;;;;;;;;;;;;;;5039276;28;19928;-78
2023/05/25 16:00:53;;;;;;;;;;;;;;;;;;5048067;28;19923;-78
2023/05/25 16:03:41;;;;;;;;;;;;;;;;;;5030639;28;20035;-76
2023/05/25 16:06:28;;;;;;;;;;;;;;;;;;5048602;28;20435;-76
2023/05/25 16:09:14;;;;;;;;;;;;;;;;;;5052584;28;19924;-75
2023/05/25 16:12:01;;;;;;;;;;;;;;;;;;5052177;28;20928;-76
2023/05/25 16:14:48;;;;;;;;;;;;;;;;;;5043198;28;19932;-77
2023/05/25 16:17:34;;;;;;;;;;;;;;;;;;5051144;28;19932;-76
2023/05/25 16:20:21;;;;;;;;;;;;;;;;;;5043464;28;19954;-76
2023/05/25 16:23:07;;;;;;;;;;;;;;;;;;5044473;28;19931;-77
2023/05/25 16:25:54;;;;;;;;;;;;;;;;;;5048783;28;20303;-76
2023/05/25 16:28:40;;;;;;;;;;;;;;;;;;5030255;28;19928;-78
2023/05/25 16:31:27;;;;;;;;;;;;;;;;;;5030362;28;19925;-75
2023/05/25 16:34:13;;;;;;;;;;;;;;;;;;5042673;28;19927;-77
2023/05/25 16:37:00;;;;;;;;;;;;;;;;;;5061266;28;20034;-77
2023/05/25 16:39:46;;;;;;;;;;;;;;;;;;5040364;28;19924;-77
2023/05/25 16:42:33;;;;;;;;;;;;;;;;;;5040882;28;19917;-75
2023/05/25 16:45:19;;;;;;;;;;;;;;;;;;5032692;28;20622;-76
2023/05/25 16:48:06;;;;;;;;;;;;;;;;;;5039175;28;19921;-77
2023/05/25 16:50:52;;;;;;;;;;;;;;;;;;5041977;28;19959;-77
2023/05/25 16:53:39;;;;;;;;;;;;;;;;;;5049669;28;19920;-76
2023/05/25 16:56:26;;;;;;;;;;;;;;;;;;5048094;28;19928;-75
2023/05/25 16:59:12;;;;;;;;;;;;;;;;;;5049088;28;19924;-75
2023/05/25 17:01:59;;;;;;;;;;;;;;;;;;5037398;28;20300;-75
2023/05/25 17:04:45;;;;;;;;;;;;;;;;;;5036032;28;19924;-75
2023/05/25 17:07:32;;;;;;;;;;;;;;;;;;5055048;28;19936;-85
2023/05/25 17:10:18;;;;;;;;;;;;;;;;;;5042030;28;19939;-75
2023/05/25 17:13:05;;;;;;;;;;;;;;;;;;5040277;28;19952;-74
2023/05/25 17:15:51;;;;;;;;;;;;;;;;;;5041093;28;19925;-78
2023/05/25 17:18:40;;;;;;;;;;;;;;;;;;5062910;28;19939;-77
2023/05/25 17:21:26;;;;;;;;;;;;;;;;;;5050612;28;20533;-75
2023/05/25 17:24:13;;;;;;;;;;;;;;;;;;5043563;28;19917;-77
2023/05/25 17:27:00;;;;;;;;;;;;;;;;;;5053577;28;19927;-76
2023/05/25 17:29:47;;;;;;;;;;;;;;;;;;5040361;28;19920;-76
2023/05/25 17:32:34;;;;;;;;;;;;;;;;;;5079444;28;19946;-77
2023/05/25 17:35:20;;;;;;;;;;;;;;;;;;5062338;28;19928;-76
2023/05/25 17:38:06;;;;;;;;;;;;;;;;;;5046453;28;20005;-78
2023/05/25 17:40:53;;;;;;;;;;;;;;;;;;5048371;28;20503;-76
2023/05/25 17:43:40;;;;;;;;;;;;;;;;;;5039396;28;19943;-76
2023/05/25 17:46:26;;;;;;;;;;;;;;;;;;5031530;28;19936;-76
2023/05/25 17:49:13;;;;;;;;;;;;;;;;;;5034452;28;19916;-77
2023/05/25 17:51:59;;;;;;;;;;;;;;;;;;5046325;28;19921;-78
2023/05/25 17:54:46;;;;;;;;;;;;;;;;;;5056874;28;19921;-77
2023/05/25 17:57:32;;;;;;;;;;;;;;;;;;5044332;28;19928;-77
2023/05/25 18:00:21;;;;;;;;;;;;;;;;;;5041611;28;19913;-77
2023/05/25 18:03:08;;;;;;;;;;;;;;;;;;5036067;28;19928;-77
2023/05/25 18:05:54;;;;;;;;;;;;;;;;;;5039099;28;19992;-78
2023/05/25 18:08:40;;;;;;;;;;;;;;;;;;5049423;28;19917;-77
2023/05/25 18:11:28;;;;;;;;;;;;;;;;;;5037237;28;19920;-77
2023/05/25 18:14:15;;;;;;;;;;;;;;;;;;5037770;28;19921;-78
2023/05/25 18:17:01;;;;;;;;;;;;;;;;;;5035134;28;19935;-77
2023/05/25 18:19:48;;;;;;;;;;;;;;;;;;5049278;28;19921;-77
2023/05/25 18:22:35;;;;;;;;;;;;;;;;;;5045727;28;19920;-77
2023/05/25 18:25:21;;;;;;;;;;;;;;;;;;5038396;28;19927;-76
2023/05/25 18:28:08;;;;;;;;;;;;;;;;;;5047436;28;19920;-76
2023/05/25 18:30:54;;;;;;;;;;;;;;;;;;5049747;28;20384;-78
2023/05/25 18:33:41;;;;;;;;;;;;;;;;;;5045201;28;19925;-77
2023/05/25 18:36:27;;;;;;;;;;;;;;;;;;5037389;28;19935;-78
2023/05/25 18:39:14;;;;;;;;;;;;;;;;;;5056356;28;20243;-77
2023/05/25 18:42:01;;;;;;;;;;;;;;;;;;5035537;28;19928;-78
2023/05/25 18:44:47;;;;;;;;;;;;;;;;;;5038250;28;19916;-77
2023/05/25 18:47:34;;;;;;;;;;;;;;;;;;5043554;28;20347;-77
2023/05/25 18:50:21;;;;;;;;;;;;;;;;;;5039277;28;19923;-78
2023/05/25 18:53:09;;;;;;;;;;;;;;;;;;5037620;28;19928;-78
2023/05/25 18:55:56;;;;;;;;;;;;;;;;;;5036495;28;19933;-82
2023/05/25 18:58:43;;;;;;;;;;;;;;;;;;5063547;28;19927;-78